Time;durP1;ratioP1;P1;durP2;ratioP2;P2;SDS_P1;SDS_P2;PMS_P1;PMS_P2;Temp;Humidity;BMP_temperature;BMP_pressure;BME280_temperature;BME280_humidity;BME280_pressure;Samples;Min_cycle;Max_cycle;Signal;HPM_P1;HPM_P2
2021/03/18 04:11:37;;;;;;;1.60;1.40;;;-4.20;97.30;;;;;;5090270;28;20184;-66
2021/03/18 04:14:04;;;;;;;2.50;1.40;;;-4.20;98.10;;;;;;5092204;28;20020;-65
2021/03/18 04:16:32;;;;;;;3.08;1.80;;;-4.30;98.80;;;;;;5092258;28;20020;-65
2021/03/18 04:19:00;;;;;;;5.60;1.70;;;-4.20;98.70;;;;;;5073821;28;20391;-66
2021/03/18 04:21:26;;;;;;;2.15;1.60;;;-4.10;98.30;;;;;;5091894;28;20090;-66
2021/03/18 04:23:54;;;;;;;4.97;1.65;;;-4.00;98.20;;;;;;5092310;28;20158;-67
2021/03/18 04:26:21;;;;;;;5.05;1.95;;;-4.00;97.50;;;;;;5092236;28;20027;-65
2021/03/18 04:28:48;;;;;;;2.47;1.70;;;-4.00;96.90;;;;;;5092255;28;20388;-65
2021/03/18 04:31:14;;;;;;;2.72;1.55;;;-4.10;96.70;;;;;;5092365;28;20016;-65
2021/03/18 04:33:41;;;;;;;2.65;1.52;;;-4.10;96.40;;;;;;5091707;28;20077;-66
2021/03/18 04:36:07;;;;;;;5.25;1.63;;;-4.20;96.30;;;;;;5092303;28;20032;-66
2021/03/18 04:38:34;;;;;;;2.05;1.80;;;-4.20;95.90;;;;;;5091720;28;20035;-66
2021/03/18 04:41:00;;;;;;;2.63;1.75;;;-4.20;96.30;;;;;;5091919;28;20024;-64
2021/03/18 04:43:27;;;;;;;4.35;1.90;;;-4.30;96.70;;;;;;5091910;28;20040;-65
2021/03/18 04:45:54;;;;;;;2.58;1.88;;;-4.30;97.20;;;;;;5091826;28;20020;-65
2021/03/18 04:48:22;;;;;;;2.90;1.60;;;-4.40;97.50;;;;;;5091993;28;20399;-66
2021/03/18 04:50:48;;;;;;;3.50;1.88;;;-4.40;98.00;;;;;;5091907;28;20027;-65
2021/03/18 04:53:17;;;;;;;3.13;1.85;;;-4.30;98.30;;;;;;5091550;28;20598;-66
2021/03/18 04:55:43;;;;;;;1.70;1.60;;;-4.30;99.00;;;;;;5091455;28;20035;-66
2021/03/18 04:58:10;;;;;;;3.65;1.77;;;-4.30;98.50;;;;;;5091553;28;20024;-66
2021/03/18 05:00:38;;;;;;;3.50;1.65;;;-4.30;98.60;;;;;;5091525;28;20032;-66
2021/03/18 05:03:11;;;;;;;4.10;1.55;;;-4.30;99.20;;;;;;5091416;28;20051;-65
2021/03/18 05:05:37;;;;;;;3.60;1.95;;;-4.30;99.90;;;;;;5091394;28;20024;-65
2021/03/18 05:08:04;;;;;;;2.25;1.08;;;-4.20;99.90;;;;;;5091549;28;20013;-65
2021/03/18 05:10:33;;;;;;;3.85;1.50;;;-4.20;99.90;;;;;;5091320;28;20028;-65
2021/03/18 05:13:02;;;;;;;1.70;1.40;;;-4.20;99.90;;;;;;5091179;28;20074;-64
2021/03/18 05:15:29;;;;;;;1.90;1.52;;;-4.10;99.40;;;;;;5091272;28;20395;-65
2021/03/18 05:17:56;;;;;;;6.40;2.00;;;-4.00;99.00;;;;;;5095294;28;20468;-65
2021/03/18 05:20:23;;;;;;;2.13;1.48;;;-3.80;97.90;;;;;;5095694;28;20450;-65
2021/03/18 05:22:50;;;;;;;3.50;1.60;;;-3.60;97.30;;;;;;5095872;28;20019;-65
2021/03/18 05:25:21;;;;;;;1.85;1.48;;;-3.30;95.80;;;;;;5095547;28;20616;-66
2021/03/18 05:27:47;;;;;;;2.40;1.58;;;-2.90;93.70;;;;;;5095350;28;20055;-65
2021/03/18 05:30:14;;;;;;;1.85;1.35;;;-2.70;91.90;;;;;;5095257;28;20020;-66
2021/03/18 05:32:41;;;;;;;2.95;1.60;;;-2.60;90.60;;;;;;5095704;28;20032;-65
2021/03/18 05:35:08;;;;;;;1.88;1.42;;;-2.50;90.20;;;;;;5095283;28;20357;-72
2021/03/18 05:37:34;;;;;;;4.47;1.55;;;-2.30;89.00;;;;;;5095318;28;20056;-67
2021/03/18 05:40:02;;;;;;;1.55;1.42;;;-1.90;90.00;;;;;;5095305;28;20063;-67
2021/03/18 05:42:28;;;;;;;1.85;1.40;;;-1.30;90.20;;;;;;5095232;28;20028;-66
2021/03/18 05:44:54;;;;;;;3.13;1.30;;;-1.20;84.20;;;;;;5094826;28;20036;-67
2021/03/18 05:47:20;;;;;;;2.58;1.52;;;-1.10;82.10;;;;;;5094330;28;20070;-67
2021/03/18 05:49:46;;;;;;;3.78;1.48;;;-1.00;81.10;;;;;;5091603;28;20411;-67
2021/03/18 05:52:12;;;;;;;1.75;1.20;;;-0.90;80.80;;;;;;5091080;28;20027;-68
2021/03/18 05:54:44;;;;;;;1.95;1.40;;;-0.80;80.70;;;;;;5091052;28;20031;-67
2021/03/18 05:57:11;;;;;;;1.15;1.10;;;-0.70;79.70;;;;;;5094094;28;20383;-67
2021/03/18 05:59:38;;;;;;;3.60;1.30;;;-0.40;79.30;;;;;;5089046;28;20024;-67
2021/03/18 06:02:04;;;;;;;3.70;1.27;;;-0.30;77.60;;;;;;5093785;28;20386;-67
2021/03/18 06:04:30;;;;;;;3.42;1.20;;;-0.20;77.90;;;;;;5087809;28;20028;-65
2021/03/18 06:06:56;;;;;;;6.50;1.40;;;-0.10;77.10;;;;;;5091350;28;20054;-65
2021/03/18 06:09:21;;;;;;;2.17;1.27;;;0.10;76.70;;;;;;5093929;28;20017;-65
2021/03/18 06:11:48;;;;;;;1.58;1.17;;;0.30;75.90;;;;;;5093389;28;20028;-68
2021/03/18 06:14:13;;;;;;;5.75;1.40;;;0.50;81.90;;;;;;5093627;28;20039;-66
2021/03/18 06:16:43;;;;;;;2.50;1.38;;;0.90;83.00;;;;;;5093074;28;20019;-70
2021/03/18 06:19:09;;;;;;;6.43;1.52;;;1.30;83.60;;;;;;5091849;28;20060;-71
2021/03/18 06:21:51;;;;;;;4.72;1.63;;;1.40;75.90;;;;;;5094018;28;20012;-72
2021/03/18 06:24:18;;;;;;;3.80;1.30;;;1.40;72.50;;;;;;5094132;28;20024;-69
2021/03/18 06:26:44;;;;;;;5.93;1.70;;;1.20;71.50;;;;;;5093961;28;20371;-70
2021/03/18 06:29:28;;;;;;;4.43;2.13;;;1.50;86.50;;;;;;5075211;28;20028;-70
2021/03/18 06:31:54;;;;;;;8.80;1.80;;;1.60;72.10;;;;;;5091148;28;20473;-70
2021/03/18 06:34:52;;;;;;;6.85;1.20;;;1.40;70.40;;;;;;5094372;28;20421;-70
2021/03/18 06:37:28;;;;;;;6.50;1.48;;;1.30;70.20;;;;;;5093849;28;20032;-71
2021/03/18 06:39:54;;;;;;;4.03;1.40;;;1.30;70.20;;;;;;5093805;28;20506;-71
2021/03/18 06:42:20;;;;;;;2.80;1.30;;;1.30;69.80;;;;;;5093791;28;20079;-70
2021/03/18 06:44:45;;;;;;;11.98;1.67;;;1.30;69.50;;;;;;5093570;28;20063;-67
2021/03/18 06:47:12;;;;;;;3.17;1.10;;;1.10;69.10;;;;;;5093553;28;20031;-69
2021/03/18 06:49:38;;;;;;;2.30;1.35;;;1.00;69.30;;;;;;5093434;28;20085;-69
2021/03/18 06:52:09;;;;;;;3.40;1.95;;;0.90;69.40;;;;;;5093855;28;20020;-69
2021/03/18 06:54:42;;;;;;;2.70;1.25;;;0.90;69.40;;;;;;5093603;28;20035;-69
2021/03/18 06:57:08;;;;;;;4.15;1.55;;;0.90;69.40;;;;;;5093477;28;20024;-67
2021/03/18 06:59:39;;;;;;;5.53;1.83;;;0.80;69.30;;;;;;5093644;28;20494;-67
2021/03/18 07:02:09;;;;;;;2.30;1.20;;;0.80;70.10;;;;;;5093358;28;20158;-69
2021/03/18 07:04:38;;;;;;;12.40;2.13;;;0.90;71.90;;;;;;5093519;28;20044;-68
2021/03/18 07:07:05;;;;;;;2.65;1.13;;;1.30;83.20;;;;;;5093686;28;20020;-69
2021/03/18 07:09:32;;;;;;;2.63;1.13;;;1.90;83.60;;;;;;5093098;28;20030;-68
2021/03/18 07:12:06;;;;;;;2.85;0.90;;;2.40;97.20;;;;;;5093146;28;20077;-66
2021/03/18 07:14:42;;;;;;;2.50;1.17;;;2.40;70.80;;;;;;5086920;28;20048;-68
2021/03/18 07:17:11;;;;;;;1.70;1.20;;;2.90;76.00;;;;;;5071579;28;20417;-69
2021/03/18 07:19:37;;;;;;;1.13;0.98;;;2.10;68.40;;;;;;5091478;28;20027;-71
2021/03/18 07:22:04;;;;;;;2.78;1.30;;;1.30;66.90;;;;;;5091572;28;20024;-69
2021/03/18 07:24:33;;;;;;;7.03;1.25;;;0.70;68.00;;;;;;5091511;28;20487;-66
2021/03/18 07:27:12;;;;;;;2.03;1.10;;;0.50;69.00;;;;;;5092866;28;20440;-69
2021/03/18 07:29:41;;;;;;;1.05;0.88;;;0.40;68.80;;;;;;5092773;28;20040;-68
2021/03/18 07:32:07;;;;;;;3.80;0.93;;;0.10;66.00;;;;;;5092247;28;20020;-68
2021/03/18 07:34:33;;;;;;;1.20;0.90;;;-0.30;67.00;;;;;;5091681;28;20030;-69
2021/03/18 07:37:01;;;;;;;3.63;1.13;;;-0.40;66.40;;;;;;5092712;28;20527;-69
2021/03/18 07:39:27;;;;;;;4.30;1.20;;;-0.60;66.10;;;;;;5090530;28;20016;-68
2021/03/18 07:41:54;;;;;;;2.03;0.80;;;-0.80;66.30;;;;;;5090251;28;20024;-70
2021/03/18 07:44:21;;;;;;;1.67;1.15;;;-0.90;67.40;;;;;;5091802;28;20040;-70
2021/03/18 07:46:48;;;;;;;1.92;0.98;;;-0.90;66.60;;;;;;5091925;28;20013;-70
2021/03/18 07:49:27;;;;;;;3.80;1.92;;;-1.00;67.30;;;;;;5088981;28;20128;-70
2021/03/18 07:51:56;;;;;;;5.70;1.58;;;-1.00;67.40;;;;;;5092255;28;20020;-70
2021/03/18 07:54:24;;;;;;;1.63;1.20;;;-1.10;66.60;;;;;;5082575;28;20148;-71
2021/03/18 07:56:56;;;;;;;4.15;1.70;;;-1.30;66.60;;;;;;5091416;28;20475;-70
2021/03/18 07:59:29;;;;;;;2.67;1.55;;;-1.30;67.00;;;;;;5091263;28;20189;-73
2021/03/18 08:02:10;;;;;;;4.78;1.40;;;-1.30;66.00;;;;;;5091831;28;20035;-73
2021/03/18 08:04:41;;;;;;;1.75;1.33;;;-1.40;66.00;;;;;;5091646;28;20092;-73
2021/03/18 08:07:07;;;;;;;3.50;1.42;;;-1.40;66.40;;;;;;5092384;28;20568;-72
2021/03/18 08:09:32;;;;;;;3.28;1.60;;;-1.30;66.00;;;;;;5092208;28;20027;-68
2021/03/18 08:11:58;;;;;;;1.25;1.00;;;-1.20;66.40;;;;;;5092147;28;20722;-70
2021/03/18 08:14:25;;;;;;;4.80;2.00;;;-1.20;66.00;;;;;;5073757;28;20490;-70
2021/03/18 08:16:51;;;;;;;6.80;2.25;;;-1.30;64.80;;;;;;5092107;28;20398;-70
2021/03/18 08:19:19;;;;;;;2.60;1.55;;;-1.30;65.40;;;;;;5092266;28;20032;-70
2021/03/18 08:21:48;;;;;;;3.97;2.10;;;-1.30;66.10;;;;;;5091803;28;20028;-70
2021/03/18 08:24:19;;;;;;;5.00;1.85;;;-1.20;65.90;;;;;;5091837;28;20036;-73
2021/03/18 08:26:51;;;;;;;2.88;1.30;;;-1.20;65.20;;;;;;5092458;28;20016;-72
2021/03/18 08:29:21;;;;;;;1.98;1.10;;;-1.10;64.10;;;;;;5092057;28;20028;-72
2021/03/18 08:31:53;;;;;;;2.55;1.10;;;-1.10;64.60;;;;;;5092071;28;20020;-72
2021/03/18 08:34:20;;;;;;;1.10;1.00;;;-1.20;64.00;;;;;;5091847;28;20135;-72
2021/03/18 08:36:55;;;;;;;1.75;1.00;;;-1.10;64.40;;;;;;5091323;28;20024;-72
2021/03/18 08:39:41;;;;;;;1.38;1.00;;;-1.10;63.70;;;;;;5091684;28;20027;-72
2021/03/18 08:42:28;;;;;;;0.95;0.80;;;-1.10;62.40;;;;;;5092017;28;20028;-73
2021/03/18 08:45:05;;;;;;;1.10;1.00;;;-1.00;61.70;;;;;;5091518;28;20032;-72
2021/03/18 08:47:49;;;;;;;2.00;1.05;;;-1.00;60.60;;;;;;5091715;28;20024;-72
2021/03/18 08:50:34;;;;;;;1.33;0.80;;;-1.00;61.60;;;;;;5092202;28;20036;-77
2021/03/18 08:53:02;;;;;;;2.95;1.10;;;-0.90;62.90;;;;;;5091130;28;20028;-73
2021/03/18 08:55:35;;;;;;;3.47;1.00;;;-0.60;70.90;;;;;;5090799;28;20445;-71
2021/03/18 08:58:01;;;;;;;1.30;1.20;;;0.00;66.80;;;;;;5091929;28;20098;-76
2021/03/18 09:00:27;;;;;;;1.77;1.15;;;-0.10;62.60;;;;;;5091814;28;20039;-74
2021/03/18 09:02:52;;;;;;;1.83;0.95;;;-0.30;60.00;;;;;;5091553;28;20440;-70
2021/03/18 09:05:20;;;;;;;2.33;1.00;;;-0.40;59.00;;;;;;5091373;28;20047;-73
2021/03/18 09:07:51;;;;;;;1.20;1.10;;;-0.40;60.40;;;;;;5091562;28;20208;-76
2021/03/18 09:10:23;;;;;;;1.70;1.00;;;-0.40;60.40;;;;;;5091652;28;20028;-74
2021/03/18 09:12:58;;;;;;;1.02;0.90;;;-0.40;60.80;;;;;;5091402;28;20136;-74
2021/03/18 09:15:30;;;;;;;1.80;1.10;;;-0.40;60.20;;;;;;5090477;28;20039;-74
2021/03/18 09:18:01;;;;;;;1.45;1.02;;;-0.30;59.80;;;;;;5091643;28;20024;-74
2021/03/18 09:20:30;;;;;;;2.13;0.80;;;-0.40;57.70;;;;;;5090994;28;20030;-73
2021/03/18 09:23:16;;;;;;;1.45;0.93;;;-0.50;57.10;;;;;;5091502;28;20040;-75
2021/03/18 09:25:44;;;;;;;0.88;0.80;;;-0.40;58.50;;;;;;5090640;28;20040;-73
2021/03/18 09:28:11;;;;;;;2.78;1.10;;;-0.30;58.90;;;;;;5091511;28;20476;-75
2021/03/18 09:30:39;;;;;;;3.03;0.90;;;-0.30;58.40;;;;;;5091535;28;20029;-75
2021/03/18 09:33:26;;;;;;;3.30;1.38;;;-0.20;58.90;;;;;;5091595;28;20103;-72
2021/03/18 09:35:54;;;;;;;1.77;1.00;;;0.30;65.40;;;;;;5091125;28;20380;-73
2021/03/18 09:38:23;;;;;;;2.13;1.10;;;0.30;60.00;;;;;;5091527;28;20024;-75
2021/03/18 09:40:50;;;;;;;2.53;0.80;;;0.20;59.70;;;;;;5091460;28;20391;-74
2021/03/18 09:43:21;;;;;;;1.92;1.02;;;0.20;58.80;;;;;;5091531;28;20497;-74
2021/03/18 09:45:49;;;;;;;3.40;1.02;;;0.10;57.90;;;;;;5090737;28;20032;-73
2021/03/18 09:48:32;;;;;;;1.90;1.08;;;0.00;57.40;;;;;;5090912;28;20103;-76
2021/03/18 09:51:16;;;;;;;1.83;0.82;;;-0.20;57.50;;;;;;5071285;28;20032;-75
2021/03/18 09:53:55;;;;;;;2.92;1.08;;;-0.20;59.00;;;;;;5071312;28;20098;-75
2021/03/18 09:56:21;;;;;;;1.88;0.80;;;-0.20;57.80;;;;;;5071492;28;20474;-75
2021/03/18 09:58:48;;;;;;;3.85;1.20;;;-0.20;57.50;;;;;;5071221;28;20060;-75
2021/03/18 10:01:23;;;;;;;1.88;0.80;;;-0.20;57.20;;;;;;5080526;28;20391;-75
2021/03/18 10:04:02;;;;;;;1.60;1.00;;;-0.20;57.70;;;;;;5074481;28;20059;-73
2021/03/18 10:06:43;;;;;;;3.42;1.02;;;-0.10;58.50;;;;;;5095376;28;20020;-75
2021/03/18 10:09:25;;;;;;;1.02;0.93;;;0.00;59.30;;;;;;5094979;28;20502;-74
2021/03/18 10:11:54;;;;;;;5.05;1.10;;;0.00;59.20;;;;;;5094584;28;20032;-79
2021/03/18 10:14:24;;;;;;;1.33;1.08;;;0.10;58.90;;;;;;5094564;28;20035;-78
2021/03/18 10:16:51;;;;;;;2.00;1.10;;;0.10;58.50;;;;;;5094639;28;20487;-69
2021/03/18 10:19:23;;;;;;;1.10;0.88;;;0.40;60.30;;;;;;5093237;28;20111;-72
2021/03/18 10:21:50;;;;;;;1.10;0.90;;;0.40;59.70;;;;;;5094934;28;20032;-71
2021/03/18 10:24:17;;;;;;;2.50;1.10;;;0.20;57.30;;;;;;5094593;28;20032;-76
2021/03/18 10:26:44;;;;;;;3.63;1.05;;;0.10;58.00;;;;;;5094420;28;20495;-76
2021/03/18 10:29:10;;;;;;;2.38;1.10;;;0.10;57.70;;;;;;5094707;28;20070;-72
2021/03/18 10:31:38;;;;;;;2.45;0.90;;;0.00;57.20;;;;;;5098952;28;20539;-73
2021/03/18 10:34:05;;;;;;;1.67;0.95;;;-0.10;58.30;;;;;;5094193;28;20028;-73
2021/03/18 10:36:42;;;;;;;4.05;1.08;;;-0.10;57.90;;;;;;5094207;28;20020;-73
2021/03/18 10:39:13;;;;;;;1.92;1.10;;;-0.10;57.10;;;;;;5094370;28;20031;-73
2021/03/18 10:41:52;;;;;;;1.98;0.90;;;-0.10;58.20;;;;;;5094436;28;20078;-73
2021/03/18 10:44:20;;;;;;;1.58;0.90;;;-0.10;57.60;;;;;;5094249;28;20093;-74
2021/03/18 10:46:46;;;;;;;1.13;0.85;;;-0.10;57.50;;;;;;5094370;28;20020;-74
2021/03/18 10:49:13;;;;;;;1.15;1.00;;;-0.10;57.20;;;;;;5094230;28;20028;-74
2021/03/18 10:51:46;;;;;;;2.97;1.02;;;0.00;57.30;;;;;;5094225;28;20024;-73
2021/03/18 10:54:22;;;;;;;0.95;0.90;;;0.10;57.10;;;;;;5094263;28;20051;-74
2021/03/18 10:56:52;;;;;;;1.73;0.95;;;0.10;57.10;;;;;;5094044;28;20063;-71
2021/03/18 10:59:19;;;;;;;3.30;1.20;;;0.00;57.30;;;;;;5093395;28;20069;-74
2021/03/18 11:01:46;;;;;;;2.50;1.60;;;0.00;57.50;;;;;;5093681;28;20029;-74
2021/03/18 11:04:12;;;;;;;1.88;1.02;;;0.00;57.80;;;;;;5093763;28;20032;-74
2021/03/18 11:06:51;;;;;;;1.80;0.95;;;0.10;58.10;;;;;;5093426;28;20383;-74
2021/03/18 11:09:20;;;;;;;0.88;0.80;;;0.20;57.80;;;;;;5088231;28;20042;-74
2021/03/18 11:12:00;;;;;;;1.65;1.10;;;0.20;57.70;;;;;;5093677;28;20020;-74
2021/03/18 11:14:27;;;;;;;0.98;0.90;;;0.10;58.20;;;;;;5093601;28;20039;-75
2021/03/18 11:17:08;;;;;;;3.05;1.10;;;0.20;57.80;;;;;;5093602;28;20032;-75
2021/03/18 11:19:35;;;;;;;4.05;1.38;;;0.30;57.50;;;;;;5093483;28;20032;-73
2021/03/18 11:22:03;;;;;;;2.80;1.30;;;0.30;56.40;;;;;;5093477;28;20551;-74
2021/03/18 11:24:29;;;;;;;2.90;1.17;;;0.30;56.40;;;;;;5093738;28;20032;-74
2021/03/18 11:26:59;;;;;;;1.13;0.98;;;0.40;57.50;;;;;;5093723;28;20081;-74
2021/03/18 11:29:30;;;;;;;1.30;1.08;;;0.50;57.20;;;;;;5093862;28;20098;-73
2021/03/18 11:31:59;;;;;;;1.13;1.02;;;0.50;56.30;;;;;;5093656;28;20051;-75
2021/03/18 11:34:31;;;;;;;1.58;1.13;;;0.40;56.50;;;;;;5093535;28;20110;-74
2021/03/18 11:37:01;;;;;;;1.50;0.82;;;0.40;56.90;;;;;;5093189;28;20020;-74
2021/03/18 11:39:27;;;;;;;3.22;1.10;;;0.30;56.70;;;;;;5090894;28;20028;-74
2021/03/18 11:41:56;;;;;;;1.52;1.10;;;0.30;57.00;;;;;;5093195;28;20026;-74
2021/03/18 11:44:23;;;;;;;2.13;1.10;;;0.30;57.60;;;;;;5093256;28;20036;-74
2021/03/18 11:46:49;;;;;;;2.33;1.00;;;0.40;57.50;;;;;;5093387;28;20043;-74
2021/03/18 11:49:15;;;;;;;2.78;1.33;;;0.40;56.30;;;;;;5092698;28;20028;-73
2021/03/18 11:51:41;;;;;;;2.28;1.25;;;0.40;57.30;;;;;;5092893;28;20020;-75
2021/03/18 11:54:08;;;;;;;1.73;1.10;;;0.30;57.30;;;;;;5093056;28;20020;-73
2021/03/18 11:56:35;;;;;;;2.47;1.02;;;0.30;57.00;;;;;;5093291;28;20077;-74
2021/03/18 11:59:01;;;;;;;3.47;1.10;;;0.40;57.60;;;;;;5092615;28;20028;-74
2021/03/18 12:01:27;;;;;;;2.22;1.25;;;0.50;57.20;;;;;;5092779;28;20134;-74
2021/03/18 12:03:52;;;;;;;1.58;0.90;;;0.40;55.50;;;;;;5092813;28;20067;-74
2021/03/18 12:06:19;;;;;;;1.88;1.20;;;0.40;55.70;;;;;;5092642;28;20491;-74
2021/03/18 12:08:45;;;;;;;0.95;0.80;;;0.30;55.50;;;;;;5092651;28;20024;-74
2021/03/18 12:11:10;;;;;;;3.10;0.90;;;0.40;55.00;;;;;;5092761;28;20031;-74
2021/03/18 12:13:37;;;;;;;1.90;1.17;;;0.40;55.60;;;;;;5092556;28;20108;-74
2021/03/18 12:16:03;;;;;;;1.40;1.02;;;0.40;55.10;;;;;;5092470;28;20490;-74
2021/03/18 12:18:30;;;;;;;1.85;1.17;;;0.40;54.40;;;;;;5092862;28;20383;-74
2021/03/18 12:20:58;;;;;;;1.88;0.93;;;0.40;54.10;;;;;;5092430;28;20467;-74
2021/03/18 12:23:24;;;;;;;3.80;0.98;;;0.30;52.40;;;;;;5092465;28;20059;-74
2021/03/18 12:25:50;;;;;;;4.20;0.85;;;0.30;52.80;;;;;;5092064;28;20055;-74
2021/03/18 12:28:16;;;;;;;5.13;1.10;;;0.30;52.60;;;;;;5092426;28;20020;-74
2021/03/18 12:30:45;;;;;;;4.00;1.50;;;0.30;53.40;;;;;;5092573;28;20111;-74
2021/03/18 12:33:12;;;;;;;4.10;1.10;;;0.30;52.90;;;;;;5092339;28;20043;-76
2021/03/18 12:35:38;;;;;;;2.03;1.10;;;0.30;53.10;;;;;;5091883;28;20484;-76
2021/03/18 12:38:04;;;;;;;2.13;0.90;;;0.30;53.50;;;;;;5092047;28;20439;-78
2021/03/18 12:40:31;;;;;;;1.52;0.95;;;0.20;53.80;;;;;;5092038;28;20024;-77
2021/03/18 12:42:57;;;;;;;2.42;0.80;;;0.20;53.90;;;;;;5091674;28;20027;-78
2021/03/18 12:45:23;;;;;;;1.17;1.00;;;0.20;53.50;;;;;;5091635;28;20028;-74
2021/03/18 12:47:49;;;;;;;2.13;1.60;;;0.20;53.40;;;;;;5091404;28;20024;-75
2021/03/18 12:50:17;;;;;;;1.23;0.93;;;0.20;53.40;;;;;;5090825;28;20031;-73
2021/03/18 12:52:43;;;;;;;1.40;1.10;;;0.20;55.20;;;;;;5091464;28;20155;-78
2021/03/18 12:55:09;;;;;;;1.75;1.20;;;0.50;55.60;;;;;;5091540;28;20032;-78
2021/03/18 12:57:37;;;;;;;3.13;1.02;;;1.10;62.50;;;;;;5091895;28;20046;-77
2021/03/18 13:00:05;;;;;;;1.33;1.05;;;1.00;54.50;;;;;;5092066;28;20115;-78
2021/03/18 13:02:30;;;;;;;1.10;1.00;;;0.70;52.90;;;;;;5091749;28;20444;-78
2021/03/18 13:04:56;;;;;;;3.20;0.90;;;0.50;53.20;;;;;;5091840;28;20055;-78
2021/03/18 13:07:22;;;;;;;4.45;1.05;;;0.40;52.60;;;;;;5091787;28;20029;-78
2021/03/18 13:09:47;;;;;;;2.85;1.40;;;0.40;53.50;;;;;;5091653;28;20119;-78
2021/03/18 13:12:13;;;;;;;4.25;1.10;;;0.40;53.60;;;;;;5091229;28;20076;-77
2021/03/18 13:14:39;;;;;;;6.25;0.98;;;0.40;53.60;;;;;;5092157;28;20039;-75
2021/03/18 13:17:05;;;;;;;3.20;1.15;;;0.50;56.50;;;;;;5091431;28;20028;-76
2021/03/18 13:19:31;;;;;;;1.67;0.70;;;1.20;61.00;;;;;;5091952;28;20036;-81
2021/03/18 13:21:56;;;;;;;2.30;1.27;;;1.30;55.40;;;;;;5091764;28;20020;-81
2021/03/18 13:24:23;;;;;;;1.52;0.90;;;1.00;53.10;;;;;;5091720;28;20462;-85
2021/03/18 13:26:50;;;;;;;3.65;1.05;;;0.70;52.40;;;;;;5091641;28;20035;-73
2021/03/18 13:29:17;;;;;;;2.28;1.08;;;0.60;53.10;;;;;;5091603;28;20051;-73
2021/03/18 13:31:43;;;;;;;1.35;1.00;;;0.50;52.60;;;;;;5091321;28;20020;-73
2021/03/18 13:34:11;;;;;;;7.20;1.13;;;0.50;51.90;;;;;;5091857;28;20093;-73
2021/03/18 13:36:37;;;;;;;2.35;1.00;;;0.40;51.70;;;;;;5091333;28;20471;-73
2021/03/18 13:39:05;;;;;;;2.90;1.30;;;0.30;52.50;;;;;;5094029;28;20035;-73
2021/03/18 13:41:31;;;;;;;3.10;0.98;;;0.30;53.00;;;;;;5095775;28;20025;-73
2021/03/18 13:43:57;;;;;;;2.70;1.00;;;0.30;53.00;;;;;;5095251;28;20511;-73
2021/03/18 13:46:23;;;;;;;0.70;0.70;;;0.20;52.40;;;;;;5095222;28;20035;-73
2021/03/18 13:48:50;;;;;;;3.65;1.00;;;0.20;52.50;;;;;;5095232;28;20035;-74
2021/03/18 13:51:16;;;;;;;3.95;1.20;;;1.90;80.10;;;;;;5095622;28;20387;-74
2021/03/18 13:53:42;;;;;;;2.17;1.10;;;2.10;55.50;;;;;;5095289;28;20030;-81
2021/03/18 13:56:09;;;;;;;2.50;1.15;;;1.60;51.90;;;;;;5096616;28;20107;-80
2021/03/18 13:58:34;;;;;;;2.72;1.08;;;1.20;51.60;;;;;;5094677;28;20024;-77
2021/03/18 14:01:01;;;;;;;1.88;1.10;;;0.90;51.30;;;;;;5095079;28;20066;-76
2021/03/18 14:03:28;;;;;;;2.42;0.95;;;0.70;51.70;;;;;;5094983;28;20609;-76
2021/03/18 14:05:54;;;;;;;1.80;0.90;;;0.60;51.70;;;;;;5097033;28;20395;-77
2021/03/18 14:08:20;;;;;;;3.50;1.20;;;0.50;51.00;;;;;;5097691;28;20446;-77
2021/03/18 14:10:46;;;;;;;3.30;1.10;;;0.40;51.20;;;;;;5097385;28;20111;-78
2021/03/18 14:13:12;;;;;;;3.60;1.10;;;0.40;51.00;;;;;;5098197;28;20036;-76
2021/03/18 14:15:43;;;;;;;1.33;1.00;;;0.30;51.70;;;;;;5095900;28;20499;-73
2021/03/18 14:18:10;;;;;;;2.35;1.17;;;0.30;52.00;;;;;;5094776;28;20095;-73
2021/03/18 14:20:38;;;;;;;3.42;1.15;;;0.30;52.00;;;;;;5095079;28;20036;-74
2021/03/18 14:23:06;;;;;;;1.65;1.00;;;0.20;51.90;;;;;;5094979;28;20090;-73
2021/03/18 14:25:32;;;;;;;2.35;0.98;;;0.20;51.90;;;;;;5094536;28;20495;-73
2021/03/18 14:27:58;;;;;;;4.57;1.13;;;0.20;53.10;;;;;;5094167;28;20060;-73
2021/03/18 14:30:25;;;;;;;2.15;1.08;;;0.20;52.60;;;;;;5094232;28;20503;-74
2021/03/18 14:32:51;;;;;;;5.10;1.90;;;0.20;52.60;;;;;;5094556;28;20403;-73
2021/03/18 14:35:18;;;;;;;1.40;1.30;;;0.10;52.70;;;;;;5093783;28;20024;-71
2021/03/18 14:37:44;;;;;;;1.40;1.00;;;0.10;52.20;;;;;;5093954;28;20032;-72
2021/03/18 14:40:13;;;;;;;1.42;1.00;;;0.10;51.90;;;;;;5093761;28;20028;-72
2021/03/18 14:42:38;;;;;;;1.15;1.02;;;0.10;51.90;;;;;;5091371;28;20035;-71
2021/03/18 14:45:06;;;;;;;2.42;1.35;;;0.20;52.70;;;;;;5093957;28;20036;-72
2021/03/18 14:47:32;;;;;;;2.08;1.27;;;0.20;52.50;;;;;;5094328;28;20030;-72
2021/03/18 14:49:58;;;;;;;3.08;1.15;;;0.20;52.80;;;;;;5093880;28;20028;-73
2021/03/18 14:52:24;;;;;;;1.98;1.00;;;0.10;51.80;;;;;;5094416;28;20467;-72
2021/03/18 14:54:50;;;;;;;1.48;0.90;;;0.20;52.40;;;;;;5094407;28;20074;-73
2021/03/18 14:57:15;;;;;;;2.45;1.23;;;0.20;52.00;;;;;;5094220;28;20412;-72
2021/03/18 14:59:41;;;;;;;2.05;1.02;;;0.10;52.80;;;;;;5094108;28;20028;-70
2021/03/18 15:02:08;;;;;;;3.90;1.10;;;0.10;52.80;;;;;;5094034;28;20027;-70
2021/03/18 15:04:34;;;;;;;2.78;1.20;;;0.10;52.40;;;;;;5094149;28;20043;-72
2021/03/18 15:06:59;;;;;;;2.80;1.10;;;0.10;52.20;;;;;;5093887;28;20054;-74
2021/03/18 15:09:25;;;;;;;2.17;0.93;;;0.00;52.50;;;;;;5093468;28;20028;-74
2021/03/18 15:11:51;;;;;;;5.63;1.08;;;0.00;52.70;;;;;;5093184;28;20012;-72
2021/03/18 15:14:19;;;;;;;2.63;1.20;;;0.00;52.70;;;;;;5092974;28;20475;-75
2021/03/18 15:16:45;;;;;;;5.72;1.00;;;0.00;52.80;;;;;;5093947;28;20076;-75
2021/03/18 15:19:11;;;;;;;1.38;1.02;;;-0.10;52.20;;;;;;5093092;28;20039;-75
2021/03/18 15:21:38;;;;;;;1.55;1.10;;;-0.10;52.50;;;;;;5093754;28;20059;-75
2021/03/18 15:24:05;;;;;;;2.30;1.33;;;0.00;53.70;;;;;;5093706;28;20036;-76
2021/03/18 15:26:31;;;;;;;1.55;0.90;;;-0.10;53.40;;;;;;5093495;28;20031;-77
2021/03/18 15:28:56;;;;;;;2.97;1.10;;;-0.10;53.40;;;;;;5093671;28;20024;-78
2021/03/18 15:31:22;;;;;;;3.33;1.20;;;-0.10;53.10;;;;;;5104186;28;20479;-78
2021/03/18 15:33:48;;;;;;;1.95;1.20;;;-0.20;52.70;;;;;;5094929;28;20229;-73
2021/03/18 15:36:14;;;;;;;5.85;1.10;;;-0.20;52.40;;;;;;5092909;28;20491;-73
2021/03/18 15:38:40;;;;;;;1.98;1.13;;;-0.20;52.80;;;;;;5093284;28;20032;-73
2021/03/18 15:41:06;;;;;;;5.03;1.10;;;-0.20;53.60;;;;;;5092999;28;20026;-73
2021/03/18 15:43:31;;;;;;;3.40;1.02;;;-0.20;53.40;;;;;;5093012;28;20031;-74
2021/03/18 15:45:58;;;;;;;1.30;1.13;;;-0.20;52.70;;;;;;5092929;28;20036;-74
2021/03/18 15:48:25;;;;;;;2.28;1.10;;;-0.30;53.00;;;;;;5093502;28;20020;-73
2021/03/18 15:50:50;;;;;;;1.85;1.23;;;-0.30;53.10;;;;;;5093012;28;20030;-73
2021/03/18 15:53:17;;;;;;;3.00;1.20;;;-0.40;53.40;;;;;;5093192;28;20107;-73
2021/03/18 15:55:47;;;;;;;3.25;1.33;;;-0.40;54.10;;;;;;5093136;28;20058;-73
2021/03/18 15:58:13;;;;;;;;;;;-0.40;53.60;;;;;;5093227;28;20031;-73
2021/03/18 16:00:47;;;;;;;3.20;1.60;;;-0.40;53.70;;;;;;5092219;28;19927;-75
2021/03/18 16:03:13;;;;;;;2.13;1.10;;;-0.50;54.10;;;;;;5092703;28;20039;-73
2021/03/18 16:05:39;;;;;;;2.38;1.10;;;-0.50;53.80;;;;;;5092610;28;20114;-74
2021/03/18 16:08:05;;;;;;;3.75;1.25;;;-0.50;54.00;;;;;;5092514;28;20097;-75
2021/03/18 16:10:31;;;;;;;2.78;1.45;;;-0.50;54.20;;;;;;5092321;28;20444;-75
2021/03/18 16:13:00;;;;;;;4.22;1.23;;;-0.50;54.70;;;;;;5092200;28;20121;-75
2021/03/18 16:15:25;;;;;;;4.28;1.23;;;-0.50;53.80;;;;;;5092183;28;20020;-74
2021/03/18 16:17:52;;;;;;;4.72;1.48;;;-0.50;53.80;;;;;;5089414;28;20375;-75
2021/03/18 16:20:20;;;;;;;3.28;1.30;;;-0.50;54.00;;;;;;5092093;28;20122;-74
2021/03/18 16:22:46;;;;;;;5.15;1.52;;;-0.60;53.80;;;;;;5092031;28;20573;-74
2021/03/18 16:25:14;;;;;;;4.22;1.35;;;-0.60;54.20;;;;;;5089115;28;20413;-75
2021/03/18 16:27:41;;;;;;;4.20;1.20;;;-0.60;54.70;;;;;;5092202;28;20024;-75
2021/03/18 16:30:10;;;;;;;1.98;1.30;;;-0.60;55.00;;;;;;5091800;28;20065;-73
2021/03/18 16:32:36;;;;;;;2.33;1.33;;;-0.60;54.70;;;;;;5092186;28;20047;-73
2021/03/18 16:35:03;;;;;;;3.85;1.60;;;-0.60;54.00;;;;;;5091771;28;20395;-75
2021/03/18 16:37:29;;;;;;;1.88;1.30;;;-0.70;54.80;;;;;;5091981;28;20133;-74
2021/03/18 16:39:55;;;;;;;3.58;1.55;;;-0.80;54.30;;;;;;5074178;28;20562;-76
2021/03/18 16:42:21;;;;;;;3.22;1.20;;;-0.80;54.50;;;;;;5092200;28;20494;-75
2021/03/18 16:44:47;;;;;;;3.88;1.30;;;-0.80;54.80;;;;;;5092233;28;20036;-76
2021/03/18 16:47:13;;;;;;;1.45;1.20;;;-0.80;54.90;;;;;;5092314;28;20453;-76
2021/03/18 16:49:38;;;;;;;1.75;1.10;;;-0.80;55.80;;;;;;5092502;28;20107;-75
2021/03/18 16:52:04;;;;;;;3.25;1.20;;;-0.90;55.50;;;;;;5092006;28;20472;-76
2021/03/18 16:54:30;;;;;;;2.00;1.20;;;-0.90;55.90;;;;;;5092227;28;20056;-78
2021/03/18 16:56:56;;;;;;;4.07;1.38;;;-1.00;55.70;;;;;;5092129;28;20379;-78
2021/03/18 16:59:22;;;;;;;6.57;1.45;;;-1.00;55.50;;;;;;5092313;28;20020;-77
2021/03/18 17:01:48;;;;;;;3.00;1.35;;;-1.00;55.40;;;;;;5092310;28;20020;-74
2021/03/18 17:04:14;;;;;;;3.53;1.00;;;-1.00;56.00;;;;;;5091896;28;20495;-77
2021/03/18 17:06:40;;;;;;;4.10;1.33;;;-1.00;55.70;;;;;;5096805;28;20030;-78
2021/03/18 17:09:06;;;;;;;3.85;1.40;;;-0.90;58.80;;;;;;5092004;28;20031;-77